Time;durP1;ratioP1;P1;durP2;ratioP2;P2;SDS_P1;SDS_P2;PMS_P1;PMS_P2;Temp;Humidity;BMP_temperature;BMP_pressure;BME280_temperature;BME280_humidity;BME280_pressure;Samples;Min_cycle;Max_cycle;Signal;HPM_P1;HPM_P2
2023/08/07 00:02:18;;;;;;;2.13;1.43;;;;;;;;;;6213877;23;20028;-62
2023/08/07 00:04:45;;;;;;;3.20;1.80;;;;;;;;;;6214572;23;20055;-61
2023/08/07 00:07:12;;;;;;;3.17;2.23;;;;;;;;;;6214392;23;20011;-62
2023/08/07 00:09:38;;;;;;;8.13;1.73;;;;;;;;;;6214464;23;20058;-61
2023/08/07 00:12:05;;;;;;;2.57;1.87;;;;;;;;;;6213310;23;20026;-62
2023/08/07 00:14:32;;;;;;;2.33;1.50;;;;;;;;;;6208427;23;20563;-61
2023/08/07 00:16:59;;;;;;;3.60;1.70;;;;;;;;;;6208701;23;20066;-62
2023/08/07 00:19:25;;;;;;;4.00;1.60;;;;;;;;;;6208012;23;20009;-62
2023/08/07 00:21:52;;;;;;;3.40;1.80;;;;;;;;;;6208381;23;20004;-61
2023/08/07 00:24:19;;;;;;;1.33;1.00;;;;;;;;;;6213928;23;20029;-62
2023/08/07 00:26:46;;;;;;;4.27;1.50;;;;;;;;;;6214725;23;20313;-62
2023/08/07 00:29:13;;;;;;;3.63;1.63;;;;;;;;;;6216010;23;20306;-61
2023/08/07 00:31:39;;;;;;;3.10;1.50;;;;;;;;;;6216083;23;20063;-62
2023/08/07 00:34:06;;;;;;;3.53;1.10;;;;;;;;;;6216380;23;20004;-61
2023/08/07 00:36:34;;;;;;;0.93;0.83;;;;;;;;;;6210027;23;20040;-62
2023/08/07 00:39:03;;;;;;;1.30;1.10;;;;;;;;;;6209458;23;20012;-61
2023/08/07 00:41:30;;;;;;;2.67;1.83;;;;;;;;;;6209996;23;20000;-62
2023/08/07 00:43:57;;;;;;;2.67;1.13;;;;;;;;;;6210144;23;20011;-61
2023/08/07 00:46:24;;;;;;;5.27;1.83;;;;;;;;;;6215427;23;20107;-61
2023/08/07 00:48:52;;;;;;;2.23;1.50;;;;;;;;;;6215999;23;20008;-61
2023/08/07 00:51:20;;;;;;;2.83;1.97;;;;;;;;;;6215787;23;20017;-61
2023/08/07 00:53:47;;;;;;;3.73;2.03;;;;;;;;;;6215870;23;20428;-61
2023/08/07 00:56:14;;;;;;;2.50;1.03;;;;;;;;;;6215981;23;20011;-62
2023/08/07 00:58:41;;;;;;;3.43;1.63;;;;;;;;;;6210224;23;20009;-61
2023/08/07 01:01:08;;;;;;;5.10;1.93;;;;;;;;;;6209870;23;20116;-61
2023/08/07 01:03:35;;;;;;;2.67;1.87;;;;;;;;;;6210001;23;20075;-61
2023/08/07 01:06:02;;;;;;;2.07;1.23;;;;;;;;;;6210015;23;20001;-61
2023/08/07 01:08:29;;;;;;;2.40;1.53;;;;;;;;;;6215032;23;20032;-61
2023/08/07 01:11:17;;;;;;;5.13;1.50;;;;;;;;;;6215466;23;20009;-61
2023/08/07 01:14:10;;;;;;;3.30;1.63;;;;;;;;;;6215958;23;20083;-61
2023/08/07 01:16:37;;;;;;;9.03;2.50;;;;;;;;;;6192755;23;20008;-61
2023/08/07 01:19:05;;;;;;;4.13;2.13;;;;;;;;;;6213451;23;20008;-62
2023/08/07 01:21:33;;;;;;;5.00;2.03;;;;;;;;;;6209502;23;20424;-61
2023/08/07 01:24:00;;;;;;;3.60;2.80;;;;;;;;;;6209819;23;20005;-61
2023/08/07 01:26:27;;;;;;;7.53;2.93;;;;;;;;;;6209659;23;20424;-61
2023/08/07 01:29:07;;;;;;;10.37;2.93;;;;;;;;;;6210600;23;20072;-61
2023/08/07 01:31:34;;;;;;;7.23;4.00;;;;;;;;;;6214877;23;20009;-61
2023/08/07 01:34:10;;;;;;;10.67;2.80;;;;;;;;;;6215602;23;20107;-60
2023/08/07 01:36:38;;;;;;;3.30;2.27;;;;;;;;;;6215283;23;20000;-61
2023/08/07 01:39:06;;;;;;;3.97;2.37;;;;;;;;;;6215411;23;20020;-60
2023/08/07 01:41:33;;;;;;;6.03;3.10;;;;;;;;;;6213284;23;20428;-61
2023/08/07 01:44:00;;;;;;;2.40;1.70;;;;;;;;;;6208918;23;20512;-61
2023/08/07 01:46:27;;;;;;;7.70;1.90;;;;;;;;;;6209670;23;20001;-61
2023/08/07 01:48:54;;;;;;;2.77;1.50;;;;;;;;;;6209736;23;20007;-61
2023/08/07 01:51:21;;;;;;;2.87;2.17;;;;;;;;;;6210778;23;20012;-60
2023/08/07 01:53:48;;;;;;;2.43;1.73;;;;;;;;;;6215586;23;20328;-61
2023/08/07 01:56:14;;;;;;;2.77;1.93;;;;;;;;;;6215393;23;20004;-61
2023/08/07 01:58:41;;;;;;;4.80;1.50;;;;;;;;;;6215520;23;20008;-60
2023/08/07 02:01:08;;;;;;;5.23;2.40;;;;;;;;;;6215164;23;20000;-61
2023/08/07 02:03:34;;;;;;;3.97;2.40;;;;;;;;;;6213697;23;20023;-61
2023/08/07 02:06:01;;;;;;;9.27;4.23;;;;;;;;;;6209268;23;20023;-61
2023/08/07 02:08:28;;;;;;;2.97;2.63;;;;;;;;;;6209540;23;20012;-61
2023/08/07 02:10:55;;;;;;;5.27;3.40;;;;;;;;;;6209508;23;20024;-61
2023/08/07 02:13:22;;;;;;;4.67;2.77;;;;;;;;;;6210269;23;20028;-61
2023/08/07 02:15:49;;;;;;;4.77;2.57;;;;;;;;;;6214753;23;20001;-61
2023/08/07 02:18:15;;;;;;;5.53;3.70;;;;;;;;;;6215260;23;20392;-61
2023/08/07 02:20:42;;;;;;;6.87;3.83;;;;;;;;;;6215169;23;20074;-61
2023/08/07 02:23:09;;;;;;;5.53;3.73;;;;;;;;;;6215441;23;20005;-61
2023/08/07 02:25:36;;;;;;;3.93;3.03;;;;;;;;;;6213865;23;20012;-61
2023/08/07 02:28:02;;;;;;;5.67;3.57;;;;;;;;;;6209035;23;20067;-61
2023/08/07 02:30:29;;;;;;;11.93;1.90;;;;;;;;;;6209317;23;20416;-61
2023/08/07 02:32:56;;;;;;;3.37;2.50;;;;;;;;;;6208769;23;20436;-61
2023/08/07 02:35:23;;;;;;;5.53;2.93;;;;;;;;;;6209531;23;20015;-61
2023/08/07 02:37:50;;;;;;;7.33;4.63;;;;;;;;;;6215196;23;20425;-60
2023/08/07 02:40:18;;;;;;;8.23;5.23;;;;;;;;;;6214963;23;20066;-60
2023/08/07 02:42:45;;;;;;;8.50;5.47;;;;;;;;;;6215391;23;20125;-60
2023/08/07 02:45:12;;;;;;;17.13;3.77;;;;;;;;;;6215117;23;20000;-61
2023/08/07 02:47:39;;;;;;;6.37;3.87;;;;;;;;;;6213199;23;20420;-61
2023/08/07 02:50:06;;;;;;;7.23;3.83;;;;;;;;;;6208374;23;20415;-60
2023/08/07 02:52:32;;;;;;;7.67;3.47;;;;;;;;;;6208911;23;20001;-61
2023/08/07 02:54:59;;;;;;;9.77;3.93;;;;;;;;;;6209051;23;20004;-60
2023/08/07 02:57:26;;;;;;;6.10;3.37;;;;;;;;;;6209048;23;20000;-61
2023/08/07 02:59:53;;;;;;;3.27;1.90;;;;;;;;;;6214764;23;20004;-61
2023/08/07 03:02:19;;;;;;;3.00;2.10;;;;;;;;;;6214878;23;20009;-61
2023/08/07 03:04:46;;;;;;;3.10;1.70;;;;;;;;;;6214827;23;20027;-60
2023/08/07 03:07:13;;;;;;;5.53;3.07;;;;;;;;;;6214769;23;20499;-61
2023/08/07 03:09:40;;;;;;;4.57;3.23;;;;;;;;;;6214046;23;20428;-61
2023/08/07 03:12:07;;;;;;;12.67;4.60;;;;;;;;;;6208980;23;20361;-60
2023/08/07 03:14:33;;;;;;;5.80;3.67;;;;;;;;;;6208875;23;20005;-61
2023/08/07 03:17:00;;;;;;;7.50;3.87;;;;;;;;;;6208878;23;20001;-60
2023/08/07 03:19:27;;;;;;;6.20;3.50;;;;;;;;;;6208424;23;20011;-61
2023/08/07 03:21:54;;;;;;;4.63;2.93;;;;;;;;;;6214682;23;20019;-61
2023/08/07 03:24:20;;;;;;;6.47;2.90;;;;;;;;;;6215000;23;20013;-62
2023/08/07 03:26:49;;;;;;;4.60;2.40;;;;;;;;;;6214521;23;20004;-60
2023/08/07 03:29:15;;;;;;;3.67;2.27;;;;;;;;;;6214536;23;20432;-61
2023/08/07 03:31:42;;;;;;;6.43;3.50;;;;;;;;;;6214448;23;20091;-60
2023/08/07 03:34:09;;;;;;;5.80;3.70;;;;;;;;;;6208649;23;20001;-61
2023/08/07 03:36:36;;;;;;;6.20;3.53;;;;;;;;;;6209023;23;20076;-62
2023/08/07 03:39:03;;;;;;;2.87;2.00;;;;;;;;;;6207282;23;20017;-61
2023/08/07 03:41:29;;;;;;;4.07;2.43;;;;;;;;;;6207607;23;20731;-60
2023/08/07 03:43:56;;;;;;;6.43;2.10;;;;;;;;;;6213931;23;20455;-60
2023/08/07 03:46:23;;;;;;;6.90;2.57;;;;;;;;;;6214551;23;20424;-60
2023/08/07 03:48:50;;;;;;;5.13;2.23;;;;;;;;;;6214399;23;20324;-60
2023/08/07 03:51:16;;;;;;;4.30;2.57;;;;;;;;;;6213755;23;20008;-61
2023/08/07 03:53:43;;;;;;;13.03;3.10;;;;;;;;;;6214531;23;20001;-60
2023/08/07 03:56:10;;;;;;;3.73;1.87;;;;;;;;;;6208238;23;20008;-61
2023/08/07 03:58:37;;;;;;;5.60;2.90;;;;;;;;;;6208332;23;20007;-61
2023/08/07 04:01:04;;;;;;;3.80;2.63;;;;;;;;;;6209206;23;20027;-61
2023/08/07 04:03:31;;;;;;;5.90;3.83;;;;;;;;;;6210877;23;20004;-60
2023/08/07 04:05:57;;;;;;;18.47;7.27;;;;;;;;;;6215496;23;20012;-61
2023/08/07 04:08:24;;;;;;;13.83;5.70;;;;;;;;;;6216382;23;20074;-60
2023/08/07 04:11:05;;;;;;;10.70;3.97;;;;;;;;;;6216138;23;20020;-61
2023/08/07 04:13:32;;;;;;;4.53;2.73;;;;;;;;;;6216354;23;20110;-61
2023/08/07 04:16:00;;;;;;;12.87;4.07;;;;;;;;;;6215797;23;20050;-60
2023/08/07 04:18:27;;;;;;;8.20;3.70;;;;;;;;;;6209736;23;20011;-61
2023/08/07 04:20:54;;;;;;;5.37;2.83;;;;;;;;;;6210048;23;20000;-61
2023/08/07 04:23:21;;;;;;;6.30;2.13;;;;;;;;;;6210488;23;20009;-61
2023/08/07 04:25:48;;;;;;;6.37;1.90;;;;;;;;;;6209860;23;20024;-61
2023/08/07 04:28:15;;;;;;;3.20;2.17;;;;;;;;;;6215816;23;20075;-60
2023/08/07 04:30:42;;;;;;;3.77;2.37;;;;;;;;;;6216179;23;20019;-61
2023/08/07 04:33:09;;;;;;;2.00;1.40;;;;;;;;;;6216113;23;20005;-61
2023/08/07 04:35:36;;;;;;;11.77;2.50;;;;;;;;;;6215723;23;20128;-60
2023/08/07 04:38:03;;;;;;;3.53;2.10;;;;;;;;;;6215908;23;20036;-61
2023/08/07 04:40:30;;;;;;;2.57;1.50;;;;;;;;;;6210107;23;20008;-60
2023/08/07 04:42:57;;;;;;;7.20;3.57;;;;;;;;;;6209973;23;20004;-60
2023/08/07 04:45:24;;;;;;;4.70;3.10;;;;;;;;;;6209988;23;20075;-61
2023/08/07 04:47:51;;;;;;;3.83;2.70;;;;;;;;;;6209709;23;20012;-61
2023/08/07 04:50:18;;;;;;;4.63;2.63;;;;;;;;;;6215070;23;20005;-61
2023/08/07 04:52:45;;;;;;;13.73;3.70;;;;;;;;;;6215841;23;20000;-60
2023/08/07 04:55:12;;;;;;;6.70;3.90;;;;;;;;;;6216058;23;20004;-60
2023/08/07 04:57:38;;;;;;;30.23;3.87;;;;;;;;;;6215901;23;20022;-61
2023/08/07 05:00:05;;;;;;;4.47;2.53;;;;;;;;;;6215887;23;20011;-60
2023/08/07 05:02:32;;;;;;;11.60;3.27;;;;;;;;;;6209649;23;20001;-61
2023/08/07 05:04:59;;;;;;;5.17;2.17;;;;;;;;;;6209279;23;20452;-61
2023/08/07 05:07:26;;;;;;;6.33;2.33;;;;;;;;;;6209633;23;20004;-61
2023/08/07 05:09:53;;;;;;;4.17;2.67;;;;;;;;;;6209495;23;20004;-61
2023/08/07 05:12:20;;;;;;;7.57;3.63;;;;;;;;;;6214260;23;20020;-60
2023/08/07 05:14:47;;;;;;;4.27;2.07;;;;;;;;;;6215843;23;20072;-60
2023/08/07 05:17:13;;;;;;;3.80;2.03;;;;;;;;;;6215881;23;20007;-60
2023/08/07 05:19:40;;;;;;;4.53;2.47;;;;;;;;;;6215663;23;20000;-61
2023/08/07 05:22:07;;;;;;;2.33;1.73;;;;;;;;;;6215557;23;20321;-61
2023/08/07 05:24:38;;;;;;;3.33;1.83;;;;;;;;;;6209908;23;20407;-61
2023/08/07 05:27:08;;;;;;;2.23;1.43;;;;;;;;;;6209455;23;20032;-60
2023/08/07 05:29:42;;;;;;;4.60;2.07;;;;;;;;;;6209584;23;20004;-60
2023/08/07 05:32:10;;;;;;;1.60;1.30;;;;;;;;;;6209230;23;21035;-61
2023/08/07 05:34:37;;;;;;;1.97;1.43;;;;;;;;;;6214811;23;20301;-61
2023/08/07 05:37:04;;;;;;;4.73;2.53;;;;;;;;;;6214052;23;20012;-60
2023/08/07 05:39:30;;;;;;;3.53;2.33;;;;;;;;;;6215550;23;20436;-60
2023/08/07 05:41:57;;;;;;;3.93;2.37;;;;;;;;;;6215378;23;20000;-61
2023/08/07 05:44:25;;;;;;;6.30;2.40;;;;;;;;;;6215464;23;20076;-61
2023/08/07 05:46:51;;;;;;;9.00;3.03;;;;;;;;;;6209286;23;20336;-60
2023/08/07 05:49:18;;;;;;;4.67;2.83;;;;;;;;;;6209155;23;20127;-61
2023/08/07 05:51:45;;;;;;;2.43;1.77;;;;;;;;;;6209347;23;20115;-61
2023/08/07 05:54:12;;;;;;;4.50;1.93;;;;;;;;;;6209342;23;20324;-60
2023/08/07 05:56:39;;;;;;;3.77;1.93;;;;;;;;;;6214133;23;20073;-60
2023/08/07 05:59:06;;;;;;;4.23;2.23;;;;;;;;;;6215311;23;20433;-60
2023/08/07 06:01:32;;;;;;;3.17;1.90;;;;;;;;;;6215199;23;20022;-60
2023/08/07 06:03:59;;;;;;;1.90;1.40;;;;;;;;;;6214930;23;20309;-61
2023/08/07 06:06:28;;;;;;;4.37;1.97;;;;;;;;;;6215031;23;20425;-60
2023/08/07 06:08:55;;;;;;;5.40;2.00;;;;;;;;;;6209660;23;20000;-60
2023/08/07 06:11:22;;;;;;;8.37;1.77;;;;;;;;;;6209201;23;20013;-61
2023/08/07 06:13:49;;;;;;;2.90;2.00;;;;;;;;;;6209008;23;20000;-61
2023/08/07 06:16:17;;;;;;;6.47;2.07;;;;;;;;;;6208666;23;20071;-61
2023/08/07 06:18:44;;;;;;;3.20;2.10;;;;;;;;;;6213482;23;20005;-60
2023/08/07 06:21:10;;;;;;;2.97;2.00;;;;;;;;;;6215203;23;20024;-60
2023/08/07 06:23:38;;;;;;;3.27;2.03;;;;;;;;;;6214697;23;20020;-60
2023/08/07 06:26:07;;;;;;;23.87;2.00;;;;;;;;;;6215000;23;20001;-60
2023/08/07 06:28:35;;;;;;;1.40;1.10;;;;;;;;;;6214770;23;20466;-61
2023/08/07 06:31:06;;;;;;;2.63;1.93;;;;;;;;;;6209088;23;20088;-60
2023/08/07 06:33:35;;;;;;;12.40;1.87;;;;;;;;;;6208686;23;20005;-61
2023/08/07 06:36:03;;;;;;;10.77;2.07;;;;;;;;;;6208843;23;20032;-60
2023/08/07 06:38:30;;;;;;;4.13;1.97;;;;;;;;;;6208543;23;20017;-60
2023/08/07 06:40:57;;;;;;;7.13;2.10;;;;;;;;;;6214396;23;20315;-60
2023/08/07 06:43:24;;;;;;;6.17;2.73;;;;;;;;;;6214969;23;20004;-60
2023/08/07 06:45:51;;;;;;;5.87;2.37;;;;;;;;;;6214682;23;20443;-61
2023/08/07 06:48:18;;;;;;;4.73;1.73;;;;;;;;;;6215434;23;20297;-60
2023/08/07 06:50:45;;;;;;;3.97;2.43;;;;;;;;;;6214521;23;20016;-60
2023/08/07 06:53:12;;;;;;;2.80;1.83;;;;;;;;;;6209081;23;20015;-60
2023/08/07 06:55:38;;;;;;;3.23;1.83;;;;;;;;;;6208768;23;20005;-61
2023/08/07 06:58:05;;;;;;;3.77;1.93;;;;;;;;;;6208787;23;20403;-60
2023/08/07 07:00:33;;;;;;;2.20;1.50;;;;;;;;;;6208551;23;20070;-60
2023/08/07 07:03:00;;;;;;;1.93;1.30;;;;;;;;;;6212988;23;20385;-60
2023/08/07 07:05:27;;;;;;;2.43;1.57;;;;;;;;;;6215599;23;20011;-60
2023/08/07 07:07:54;;;;;;;8.47;1.90;;;;;;;;;;6214631;23;20000;-60
2023/08/07 07:10:21;;;;;;;5.40;2.10;;;;;;;;;;6214560;23;20309;-60
2023/08/07 07:12:48;;;;;;;2.93;1.60;;;;;;;;;;6214755;23;20306;-60
2023/08/07 07:15:15;;;;;;;2.23;1.40;;;;;;;;;;6208972;23;20051;-60
2023/08/07 07:17:42;;;;;;;3.43;2.57;;;;;;;;;;6208094;23;20001;-60
2023/08/07 07:20:11;;;;;;;6.00;2.33;;;;;;;;;;6208533;23;20015;-60
2023/08/07 07:22:38;;;;;;;5.47;2.47;;;;;;;;;;6208360;23;20010;-61
2023/08/07 07:25:05;;;;;;;3.27;1.57;;;;;;;;;;6213006;23;20008;-61
2023/08/07 07:27:32;;;;;;;2.47;2.07;;;;;;;;;;6215176;23;20008;-60
2023/08/07 07:29:59;;;;;;;6.17;2.73;;;;;;;;;;6214693;23;20015;-60
2023/08/07 07:32:26;;;;;;;2.67;2.07;;;;;;;;;;6214082;23;20013;-60
2023/08/07 07:34:52;;;;;;;2.20;1.43;;;;;;;;;;6214398;23;20004;-61
2023/08/07 07:37:19;;;;;;;2.73;1.57;;;;;;;;;;6209311;23;20004;-60
2023/08/07 07:39:46;;;;;;;3.27;1.90;;;;;;;;;;6208184;23;21426;-61
2023/08/07 07:42:13;;;;;;;4.10;2.03;;;;;;;;;;6208386;23;20479;-60
2023/08/07 07:44:40;;;;;;;10.57;2.33;;;;;;;;;;6208307;23;20305;-60
2023/08/07 07:47:08;;;;;;;2.43;1.43;;;;;;;;;;6212631;23;20004;-60
2023/08/07 07:49:35;;;;;;;3.73;2.03;;;;;;;;;;6214729;23;20005;-60
2023/08/07 07:52:01;;;;;;;3.07;1.87;;;;;;;;;;6214401;23;20017;-60
2023/08/07 07:54:29;;;;;;;3.67;1.97;;;;;;;;;;6214655;23;20005;-60
2023/08/07 07:56:56;;;;;;;4.80;1.67;;;;;;;;;;6214340;23;20005;-60
2023/08/07 07:59:23;;;;;;;2.30;1.43;;;;;;;;;;6209122;23;20004;-60
2023/08/07 08:01:51;;;;;;;7.53;2.67;;;;;;;;;;6207988;23;20005;-61
2023/08/07 08:04:19;;;;;;;6.60;2.13;;;;;;;;;;6208558;23;20036;-60
2023/08/07 08:06:48;;;;;;;3.57;2.23;;;;;;;;;;6208201;23;20005;-60
2023/08/07 08:09:15;;;;;;;1.33;1.00;;;;;;;;;;6212597;23;20075;-60
2023/08/07 08:11:42;;;;;;;2.30;1.80;;;;;;;;;;6214248;23;20314;-60
2023/08/07 08:14:09;;;;;;;2.40;1.53;;;;;;;;;;6214484;23;20005;-60
2023/08/07 08:16:35;;;;;;;3.00;1.50;;;;;;;;;;6213889;23;20004;-61
2023/08/07 08:19:02;;;;;;;0.97;0.80;;;;;;;;;;6214459;23;20063;-60
2023/08/07 08:21:30;;;;;;;2.93;1.53;;;;;;;;;;6209035;23;20004;-60
2023/08/07 08:23:57;;;;;;;3.40;2.03;;;;;;;;;;6208655;23;20004;-60
2023/08/07 08:26:24;;;;;;;35.60;3.17;;;;;;;;;;6208242;23;20466;-60
2023/08/07 08:28:51;;;;;;;5.13;1.83;;;;;;;;;;6207960;23;20001;-60
2023/08/07 08:31:18;;;;;;;3.43;1.77;;;;;;;;;;6212087;23;20008;-60
2023/08/07 08:33:44;;;;;;;2.37;1.67;;;;;;;;;;6214305;23;20001;-60
2023/08/07 08:36:11;;;;;;;5.30;2.33;;;;;;;;;;6214395;23;20005;-60
2023/08/07 08:38:38;;;;;;;26.73;2.03;;;;;;;;;;6214286;23;20019;-60
2023/08/07 08:41:06;;;;;;;40.90;3.57;;;;;;;;;;6214415;23;20000;-60
2023/08/07 08:43:36;;;;;;;1.80;1.40;;;;;;;;;;6209536;23;20005;-60
2023/08/07 08:46:05;;;;;;;2.67;1.97;;;;;;;;;;6207339;23;20367;-61
2023/08/07 08:48:34;;;;;;;2.57;1.73;;;;;;;;;;6209749;23;20020;-60
2023/08/07 08:51:01;;;;;;;3.20;2.10;;;;;;;;;;6209790;23;20016;-60
2023/08/07 08:53:28;;;;;;;2.60;1.67;;;;;;;;;;6214105;23;20008;-60
2023/08/07 08:55:54;;;;;;;2.30;1.53;;;;;;;;;;6216104;23;20012;-60
2023/08/07 08:58:21;;;;;;;3.10;2.00;;;;;;;;;;6215745;23;20084;-60
2023/08/07 09:00:48;;;;;;;2.17;1.83;;;;;;;;;;6215457;23;20468;-60
2023/08/07 09:03:15;;;;;;;2.70;1.83;;;;;;;;;;6216108;23;20039;-60
2023/08/07 09:05:42;;;;;;;2.07;1.40;;;;;;;;;;6210732;23;20413;-60
2023/08/07 09:08:09;;;;;;;4.03;2.17;;;;;;;;;;6209532;23;20004;-60
2023/08/07 09:10:37;;;;;;;6.87;1.90;;;;;;;;;;6209377;23;20459;-60
2023/08/07 09:13:06;;;;;;;2.50;1.80;;;;;;;;;;6209583;23;20058;-60
2023/08/07 09:15:33;;;;;;;2.13;1.60;;;;;;;;;;6213819;23;20008;-60
2023/08/07 09:18:00;;;;;;;5.17;2.10;;;;;;;;;;6215844;23;20001;-60
2023/08/07 09:20:28;;;;;;;2.37;1.63;;;;;;;;;;6215601;23;20032;-60
2023/08/07 09:22:55;;;;;;;3.73;1.67;;;;;;;;;;6215750;23;20625;-60
2023/08/07 09:25:31;;;;;;;6.57;2.70;;;;;;;;;;6215804;23;20008;-60
2023/08/07 09:27:58;;;;;;;9.13;1.90;;;;;;;;;;6209968;23;20011;-61
2023/08/07 09:30:28;;;;;;;2.67;2.07;;;;;;;;;;6209323;23;20413;-60
2023/08/07 09:32:57;;;;;;;2.37;1.43;;;;;;;;;;6209257;23;20059;-60
2023/08/07 09:35:25;;;;;;;2.57;1.70;;;;;;;;;;6209363;23;20099;-59
2023/08/07 09:37:52;;;;;;;2.10;1.50;;;;;;;;;;6212761;23;20008;-60
2023/08/07 09:40:19;;;;;;;1.70;1.27;;;;;;;;;;6215229;23;20023;-60
2023/08/07 09:42:46;;;;;;;5.93;2.60;;;;;;;;;;6215490;23;20070;-60
2023/08/07 09:45:23;;;;;;;1.60;1.10;;;;;;;;;;6215168;23;20156;-60
2023/08/07 09:48:02;;;;;;;2.50;1.53;;;;;;;;;;6215867;23;20036;-60
2023/08/07 09:50:29;;;;;;;2.90;1.93;;;;;;;;;;6209233;23;20000;-60
2023/08/07 09:52:57;;;;;;;5.60;1.63;;;;;;;;;;6209130;23;20310;-60
2023/08/07 09:55:25;;;;;;;2.93;1.70;;;;;;;;;;6209458;23;20008;-60
2023/08/07 09:57:52;;;;;;;2.30;1.60;;;;;;;;;;6207101;23;20013;-60
2023/08/07 10:00:22;;;;;;;2.83;1.27;;;;;;;;;;6214945;23;20008;-60
2023/08/07 10:02:50;;;;;;;5.73;1.93;;;;;;;;;;6215915;23;20075;-60
2023/08/07 10:05:17;;;;;;;2.13;1.43;;;;;;;;;;6215034;23;20001;-61
2023/08/07 10:07:44;;;;;;;3.43;1.70;;;;;;;;;;6215230;23;20489;-60
2023/08/07 10:10:11;;;;;;;7.93;1.87;;;;;;;;;;6214630;23;20004;-60
2023/08/07 10:12:39;;;;;;;9.83;1.60;;;;;;;;;;6208927;23;20012;-60
2023/08/07 10:15:06;;;;;;;1.87;1.20;;;;;;;;;;6209217;23;20009;-60
2023/08/07 10:17:33;;;;;;;2.67;1.53;;;;;;;;;;6208953;23;20004;-60
2023/08/07 10:20:00;;;;;;;4.90;2.23;;;;;;;;;;6208453;23;20001;-60
2023/08/07 10:22:30;;;;;;;2.77;1.80;;;;;;;;;;6214810;23;20005;-60
2023/08/07 10:24:58;;;;;;;3.13;1.93;;;;;;;;;;6215055;23;20004;-60
2023/08/07 10:27:26;;;;;;;3.83;1.90;;;;;;;;;;6215150;23;20011;-60
2023/08/07 10:29:54;;;;;;;12.13;2.23;;;;;;;;;;6215110;23;20389;-60
2023/08/07 10:32:21;;;;;;;2.93;1.77;;;;;;;;;;6214519;23;20008;-59
2023/08/07 10:34:48;;;;;;;1.90;1.17;;;;;;;;;;6208105;23;20297;-60
2023/08/07 10:37:34;;;;;;;1.40;1.00;;;;;;;;;;6208782;23;20446;-60
2023/08/07 10:40:04;;;;;;;2.60;1.90;;;;;;;;;;6208647;23;20059;-60
2023/08/07 10:42:54;;;;;;;4.17;1.90;;;;;;;;;;6209543;23;20071;-60
2023/08/07 10:45:22;;;;;;;8.93;1.80;;;;;;;;;;6207088;23;20015;-60
2023/08/07 10:47:58;;;;;;;1.80;1.10;;;;;;;;;;6214616;23;20042;-60
2023/08/07 10:50:30;;;;;;;2.30;1.67;;;;;;;;;;6214889;23;20004;-60
2023/08/07 10:52:57;;;;;;;5.13;1.73;;;;;;;;;;6214932;23;20009;-60
2023/08/07 10:55:25;;;;;;;2.97;1.97;;;;;;;;;;6211853;23;20008;-60
2023/08/07 10:57:51;;;;;;;2.83;1.40;;;;;;;;;;6208624;23;20008;-60
2023/08/07 11:00:18;;;;;;;4.93;1.30;;;;;;;;;;6208378;23;20087;-60
2023/08/07 11:02:49;;;;;;;1.97;1.37;;;;;;;;;;6208798;23;19997;-60
2023/08/07 11:05:16;;;;;;;1.97;1.30;;;;;;;;;;6210317;23;20015;-60
2023/08/07 11:07:44;;;;;;;2.03;1.53;;;;;;;;;;6213162;23;20084;-60
2023/08/07 11:10:14;;;;;;;2.50;1.50;;;;;;;;;;6214286;23;20013;-60
2023/08/07 11:12:42;;;;;;;1.93;1.10;;;;;;;;;;6214774;23;20032;-60
2023/08/07 11:15:13;;;;;;;1.80;1.23;;;;;;;;;;6214717;23;20000;-60
2023/08/07 11:17:41;;;;;;;3.10;1.13;;;;;;;;;;6211467;23;20009;-61
2023/08/07 11:20:08;;;;;;;3.00;1.43;;;;;;;;;;6208474;23;20004;-60
2023/08/07 11:22:35;;;;;;;3.67;1.57;;;;;;;;;;6208186;23;20011;-60
2023/08/07 11:25:02;;;;;;;2.17;1.30;;;;;;;;;;6208062;23;20004;-60
2023/08/07 11:27:29;;;;;;;2.20;1.43;;;;;;;;;;6210885;23;20008;-60
2023/08/07 11:29:56;;;;;;;5.80;1.87;;;;;;;;;;6214630;23;20063;-60
2023/08/07 11:32:23;;;;;;;5.33;1.60;;;;;;;;;;6213986;23;20017;-60
2023/08/07 11:34:50;;;;;;;2.20;1.00;;;;;;;;;;6214391;23;20012;-60
2023/08/07 11:37:17;;;;;;;2.33;1.37;;;;;;;;;;6214597;23;20001;-60
2023/08/07 11:39:45;;;;;;;3.40;1.43;;;;;;;;;;6211319;23;20017;-60
2023/08/07 11:42:11;;;;;;;5.17;1.93;;;;;;;;;;6208421;23;20078;-60
2023/08/07 11:44:38;;;;;;;8.20;1.73;;;;;;;;;;6208274;23;20035;-60
2023/08/07 11:47:05;;;;;;;2.07;1.17;;;;;;;;;;6207535;23;20008;-61
2023/08/07 11:49:32;;;;;;;14.07;1.63;;;;;;;;;;6210757;23;20040;-60
2023/08/07 11:51:59;;;;;;;4.90;1.83;;;;;;;;;;6214488;23;20459;-60
2023/08/07 11:54:26;;;;;;;2.03;1.33;;;;;;;;;;6214509;23;20428;-60
2023/08/07 11:56:53;;;;;;;13.93;1.60;;;;;;;;;;6214354;23;20016;-60
2023/08/07 11:59:20;;;;;;;7.13;1.33;;;;;;;;;;6214349;23;20008;-60
2023/08/07 12:01:47;;;;;;;2.63;1.47;;;;;;;;;;6211810;23;20039;-60
2023/08/07 12:04:13;;;;;;;2.97;1.63;;;;;;;;;;6208006;23;20035;-60
2023/08/07 12:06:53;;;;;;;2.60;1.43;;;;;;;;;;6208366;23;20087;-60
2023/08/07 12:09:20;;;;;;;1.30;1.20;;;;;;;;;;6208179;23;20336;-60
2023/08/07 12:11:47;;;;;;;1.13;0.97;;;;;;;;;;6210489;23;20502;-60
2023/08/07 12:14:16;;;;;;;1.60;1.33;;;;;;;;;;6214327;23;20005;-60
2023/08/07 12:16:47;;;;;;;4.40;1.37;;;;;;;;;;6214049;23;20115;-60
2023/08/07 12:19:16;;;;;;;2.03;1.13;;;;;;;;;;6214787;23;20012;-60
2023/08/07 12:21:43;;;;;;;1.30;0.97;;;;;;;;;;6215057;23;20015;-60
2023/08/07 12:24:10;;;;;;;2.00;1.10;;;;;;;;;;6212726;23;20008;-60
2023/08/07 12:26:36;;;;;;;2.67;1.37;;;;;;;;;;6210252;23;20027;-60
2023/08/07 12:29:03;;;;;;;2.63;1.57;;;;;;;;;;6209668;23;20023;-60
2023/08/07 12:31:30;;;;;;;3.03;1.17;;;;;;;;;;6209997;23;20036;-60
2023/08/07 12:33:57;;;;;;;2.03;1.57;;;;;;;;;;6212647;23;20008;-60
2023/08/07 12:36:24;;;;;;;1.90;1.33;;;;;;;;;;6216175;23;20542;-60
2023/08/07 12:38:50;;;;;;;4.77;1.37;;;;;;;;;;6216152;23;20428;-60
2023/08/07 12:41:17;;;;;;;1.43;1.03;;;;;;;;;;6216247;23;20015;-60
2023/08/07 12:43:44;;;;;;;2.73;1.50;;;;;;;;;;6215572;23;20050;-61
2023/08/07 12:46:11;;;;;;;2.43;1.60;;;;;;;;;;6212398;23;20071;-60
2023/08/07 12:48:38;;;;;;;2.67;1.50;;;;;;;;;;6210061;23;20055;-60
2023/08/07 12:51:05;;;;;;;0.80;0.80;;;;;;;;;;6209706;23;20023;-60
2023/08/07 12:53:32;;;;;;;2.57;1.43;;;;;;;;;;6209934;23;20440;-60
2023/08/07 12:55:59;;;;;;;2.57;1.77;;;;;;;;;;6212533;23;20432;-60
2023/08/07 12:58:29;;;;;;;2.30;1.77;;;;;;;;;;6215375;23;20004;-60
2023/08/07 13:00:55;;;;;;;6.83;2.37;;;;;;;;;;6216057;23;20027;-60
2023/08/07 13:03:22;;;;;;;2.90;1.97;;;;;;;;;;6215778;23;20317;-60
2023/08/07 13:05:49;;;;;;;3.20;2.00;;;;;;;;;;6215934;23;20328;-61
2023/08/07 13:08:16;;;;;;;5.93;3.23;;;;;;;;;;6212724;23;20071;-60
2023/08/07 13:10:43;;;;;;;3.33;2.03;;;;;;;;;;6209603;23;20039;-61
2023/08/07 13:13:09;;;;;;;3.33;2.40;;;;;;;;;;6209064;23;20030;-61
2023/08/07 13:15:36;;;;;;;4.90;3.10;;;;;;;;;;6209726;23;20318;-60
2023/08/07 13:18:03;;;;;;;2.97;2.20;;;;;;;;;;6212197;23;20420;-60
2023/08/07 13:20:33;;;;;;;3.23;2.00;;;;;;;;;;6215733;23;20424;-60
2023/08/07 13:23:01;;;;;;;4.10;1.70;;;;;;;;;;6215735;23;20020;-61
2023/08/07 13:25:28;;;;;;;5.17;2.23;;;;;;;;;;6215690;23;20420;-60
2023/08/07 13:27:55;;;;;;;3.70;2.00;;;;;;;;;;6215266;23;20000;-61
2023/08/07 13:30:21;;;;;;;3.20;1.93;;;;;;;;;;6212084;23;20012;-60
2023/08/07 13:32:48;;;;;;;3.73;1.80;;;;;;;;;;6209055;23;20016;-60
2023/08/07 13:35:15;;;;;;;3.33;1.87;;;;;;;;;;6209263;23;20038;-60
2023/08/07 13:37:42;;;;;;;4.10;1.77;;;;;;;;;;6209340;23;20009;-60
2023/08/07 13:40:11;;;;;;;1.90;1.50;;;;;;;;;;6211808;23;20472;-61
2023/08/07 13:42:38;;;;;;;1.90;1.20;;;;;;;;;;6215602;23;20004;-61
2023/08/07 13:45:05;;;;;;;1.03;0.80;;;;;;;;;;6215504;23;20395;-61
2023/08/07 13:47:32;;;;;;;1.83;1.17;;;;;;;;;;6215374;23;20004;-60
2023/08/07 13:49:59;;;;;;;1.47;0.97;;;;;;;;;;6215605;23;20055;-60
2023/08/07 13:52:25;;;;;;;13.93;4.40;;;;;;;;;;6212204;23;20009;-61
2023/08/07 13:54:52;;;;;;;5.83;1.63;;;;;;;;;;6209279;23;20475;-61
2023/08/07 13:57:19;;;;;;;3.20;1.63;;;;;;;;;;6208474;23;20417;-60
2023/08/07 13:59:46;;;;;;;2.10;1.17;;;;;;;;;;6209017;23;20009;-61
2023/08/07 14:02:13;;;;;;;7.33;2.30;;;;;;;;;;6211408;23;20004;-61
2023/08/07 14:04:40;;;;;;;1.50;1.27;;;;;;;;;;6215707;23;20079;-61
2023/08/07 14:07:07;;;;;;;10.67;1.50;;;;;;;;;;6215421;23;20306;-61
2023/08/07 14:09:33;;;;;;;2.27;1.43;;;;;;;;;;6215163;23;20051;-61
2023/08/07 14:12:00;;;;;;;2.03;1.50;;;;;;;;;;6214850;23;20035;-61
2023/08/07 14:14:27;;;;;;;3.20;1.70;;;;;;;;;;6212143;23;20432;-61
2023/08/07 14:16:57;;;;;;;3.20;2.03;;;;;;;;;;6209167;23;20432;-61
2023/08/07 14:19:24;;;;;;;5.67;2.00;;;;;;;;;;6208687;23;20007;-61
2023/08/07 14:21:51;;;;;;;7.33;2.33;;;;;;;;;;6209044;23;20320;-61
2023/08/07 14:24:18;;;;;;;2.57;1.63;;;;;;;;;;6210765;23;20490;-61
2023/08/07 14:26:45;;;;;;;4.57;2.70;;;;;;;;;;6215203;23;20001;-62
2023/08/07 14:29:13;;;;;;;5.43;2.17;;;;;;;;;;6215019;23;20005;-61
2023/08/07 14:31:40;;;;;;;10.87;2.13;;;;;;;;;;6215033;23;20012;-62
2023/08/07 14:34:07;;;;;;;5.60;1.80;;;;;;;;;;6215140;23;20004;-61
2023/08/07 14:36:34;;;;;;;2.50;1.67;;;;;;;;;;6211741;23;20036;-62
2023/08/07 14:39:01;;;;;;;7.87;1.67;;;;;;;;;;6208224;23;20552;-61
2023/08/07 14:41:27;;;;;;;3.27;1.83;;;;;;;;;;6208821;23;20408;-62
2023/08/07 14:43:55;;;;;;;13.80;2.10;;;;;;;;;;6208401;23;20000;-61
2023/08/07 14:46:23;;;;;;;3.00;1.83;;;;;;;;;;6210577;23;20062;-62